createdAt,value
2023-01-04T00:01:36.039Z,1.30
2023-01-04T00:03:40.195Z,1.30
2023-01-04T00:05:43.110Z,1.00
2023-01-04T00:07:47.239Z,1.23
2023-01-04T00:09:50.065Z,1.60
2023-01-04T00:11:53.485Z,1.30
2023-01-04T00:13:57.909Z,1.20
2023-01-04T00:16:07.669Z,1.40
2023-01-04T00:18:11.495Z,1.30
2023-01-04T00:20:14.942Z,1.30
2023-01-04T00:22:18.027Z,1.43
2023-01-04T00:24:22.301Z,1.30
2023-01-04T00:26:26.436Z,1.53
2023-01-04T00:28:29.629Z,1.10
2023-01-04T00:30:32.712Z,1.00
2023-01-04T00:32:35.558Z,1.40
2023-01-04T00:34:40.731Z,1.53
2023-01-04T00:36:44.168Z,1.50
2023-01-04T00:38:48.138Z,1.10
2023-01-04T00:40:52.314Z,1.33
2023-01-04T00:42:55.008Z,1.20
2023-01-04T00:44:58.093Z,1.17
2023-01-04T00:47:00.972Z,0.90
2023-01-04T00:49:03.959Z,1.40
2023-01-04T00:51:07.809Z,1.40
2023-01-04T00:53:12.440Z,1.20
2023-01-04T00:55:15.987Z,1.20
2023-01-04T00:57:20.003Z,1.17
2023-01-04T00:59:23.559Z,1.30
2023-01-04T01:01:27.044Z,1.00
2023-01-04T01:03:34.923Z,1.17
2023-01-04T01:05:41.033Z,1.20
2023-01-04T01:07:43.934Z,1.10
2023-01-04T01:09:47.921Z,1.30
2023-01-04T01:11:50.858Z,1.00
2023-01-04T01:13:55.150Z,0.93
2023-01-04T01:15:58.040Z,1.20
2023-01-04T01:18:01.324Z,1.10
2023-01-04T01:20:05.178Z,1.10
2023-01-04T01:22:10.670Z,1.20
2023-01-04T01:24:16.924Z,1.07
2023-01-04T01:26:23.375Z,0.90
2023-01-04T01:28:26.851Z,1.10
2023-01-04T01:30:31.891Z,1.10
2023-01-04T01:32:35.021Z,0.93
2023-01-04T01:34:38.274Z,1.00
2023-01-04T01:36:41.452Z,1.10
2023-01-04T01:38:44.504Z,1.30
2023-01-04T01:40:50.326Z,0.90
2023-01-04T01:42:53.536Z,1.10
2023-01-04T01:45:00.376Z,0.90
2023-01-04T01:47:04.515Z,0.80
2023-01-04T01:49:11.813Z,0.90
2023-01-04T01:51:14.909Z,1.00
2023-01-04T01:53:18.658Z,1.00
2023-01-04T01:55:21.417Z,0.87
2023-01-04T01:57:25.258Z,0.80
2023-01-04T01:59:28.437Z,0.90
2023-01-04T02:01:31.348Z,0.87
2023-01-04T02:03:37.439Z,1.10
2023-01-04T02:05:40.434Z,1.00
2023-01-04T02:07:43.577Z,0.90
2023-01-04T02:09:46.287Z,0.80
2023-01-04T02:11:48.955Z,0.70
2023-01-04T02:14:03.027Z,0.90
2023-01-04T02:16:09.409Z,0.93
2023-01-04T02:18:13.104Z,0.93
2023-01-04T02:20:29.155Z,0.90
2023-01-04T02:22:44.739Z,0.90
2023-01-04T02:24:56.931Z,0.87
2023-01-04T02:27:29.427Z,0.97
2023-01-04T02:29:54.087Z,1.07
2023-01-04T02:32:00.552Z,0.90
2023-01-04T02:34:08.756Z,0.90
2023-01-04T02:36:14.747Z,0.80
2023-01-04T02:38:21.942Z,0.97
2023-01-04T02:40:27.735Z,0.90
2023-01-04T02:42:48.438Z,0.83
2023-01-04T02:44:55.733Z,0.90
2023-01-04T02:47:01.291Z,1.10
2023-01-04T02:49:15.557Z,0.97
2023-01-04T02:51:27.126Z,1.10
2023-01-04T02:53:30.922Z,0.90
2023-01-04T02:55:40.640Z,1.00
2023-01-04T02:57:45.441Z,0.70
2023-01-04T02:59:56.206Z,0.80
2023-01-04T03:02:15.509Z,0.80
2023-01-04T03:04:35.590Z,1.20
2023-01-04T03:06:41.554Z,0.70
2023-01-04T03:08:49.098Z,0.90
2023-01-04T03:10:54.733Z,0.80
2023-01-04T03:12:59.746Z,0.90
2023-01-04T03:15:06.442Z,0.80
2023-01-04T03:17:12.019Z,1.10
2023-01-04T03:19:15.256Z,0.73
2023-01-04T03:21:18.220Z,0.90
2023-01-04T03:23:33.394Z,0.90
2023-01-04T03:25:49.396Z,0.80
2023-01-04T03:28:03.089Z,0.60
2023-01-04T03:30:18.979Z,0.63
2023-01-04T03:32:35.782Z,0.97
2023-01-04T03:34:49.440Z,0.70
2023-01-04T03:36:56.869Z,0.80
2023-01-04T03:39:15.696Z,0.70
2023-01-04T03:41:31.014Z,1.10
2023-01-04T03:43:47.420Z,0.80
2023-01-04T03:46:03.099Z,0.80
2023-01-04T03:48:22.397Z,0.83
2023-01-04T03:50:26.609Z,0.70
2023-01-04T03:52:29.766Z,0.60
2023-01-04T03:54:34.180Z,0.80
2023-01-04T03:56:37.921Z,0.70
2023-01-04T03:58:40.646Z,0.90
2023-01-04T04:00:43.413Z,0.70
2023-01-04T04:02:46.926Z,0.73
2023-01-04T04:05:01.898Z,0.70
2023-01-04T04:07:15.599Z,0.50
2023-01-04T04:09:18.407Z,0.80
2023-01-04T04:11:31.503Z,0.63
2023-01-04T04:13:34.244Z,0.63
2023-01-04T04:15:37.431Z,0.90
2023-01-04T04:17:40.143Z,0.70
2023-01-04T04:19:43.248Z,0.80
2023-01-04T04:21:47.247Z,0.90
2023-01-04T04:23:49.961Z,0.70
2023-01-04T04:25:52.670Z,0.70
2023-01-04T04:27:55.769Z,0.53
2023-01-04T04:29:58.557Z,0.70
2023-01-04T04:32:01.733Z,0.70
2023-01-04T04:34:04.543Z,0.63
2023-01-04T04:36:08.504Z,0.80
2023-01-04T04:38:12.507Z,0.80
2023-01-04T04:40:29.170Z,0.53
2023-01-04T04:42:32.265Z,0.60
2023-01-04T04:44:35.306Z,0.70
2023-01-04T04:46:38.050Z,0.80
2023-01-04T04:48:40.746Z,0.50
2023-01-04T04:50:43.785Z,0.80
2023-01-04T04:52:50.975Z,0.60
2023-01-04T04:54:58.128Z,0.80
2023-01-04T04:57:00.916Z,0.77
2023-01-04T04:59:04.138Z,0.77
2023-01-04T05:01:06.996Z,0.70
2023-01-04T05:03:09.944Z,0.63
2023-01-04T05:05:12.807Z,0.70
2023-01-04T05:07:15.907Z,0.60
2023-01-04T05:09:18.791Z,0.70
2023-01-04T05:11:42.810Z,0.60
2023-01-04T05:13:46.024Z,0.73
2023-01-04T05:15:49.875Z,0.90
2023-01-04T05:17:52.568Z,0.80
2023-01-04T05:19:55.272Z,0.70
2023-01-04T05:21:58.435Z,0.60
2023-01-04T05:24:01.190Z,0.50
2023-01-04T05:26:05.020Z,0.80
2023-01-04T05:28:09.227Z,0.60
2023-01-04T05:30:24.100Z,0.60
2023-01-04T05:32:26.869Z,0.70
2023-01-04T05:34:29.596Z,0.60
2023-01-04T05:36:32.338Z,0.70
2023-01-04T05:38:35.114Z,0.60
2023-01-04T05:40:37.794Z,0.60
2023-01-04T05:42:39.626Z,0.60
2023-01-04T05:44:43.673Z,0.67
2023-01-04T05:46:46.846Z,0.70
2023-01-04T05:48:49.574Z,0.57
2023-01-04T05:50:52.256Z,0.90
2023-01-04T05:52:54.965Z,0.90
2023-01-04T05:54:59.080Z,0.70
2023-01-04T05:57:01.796Z,0.70
2023-01-04T05:59:04.497Z,0.77
2023-01-04T06:01:08.669Z,0.67
2023-01-04T06:03:11.919Z,0.70
2023-01-04T06:05:14.672Z,0.70
2023-01-04T06:07:17.548Z,0.70
2023-01-04T06:09:20.268Z,0.77
2023-01-04T06:11:27.601Z,0.80
2023-01-04T06:13:30.925Z,0.80
2023-01-04T06:15:39.411Z,0.70
2023-01-04T06:17:46.965Z,0.50
2023-01-04T06:19:50.173Z,0.70
2023-01-04T06:21:52.949Z,0.70
2023-01-04T06:23:55.676Z,0.63
2023-01-04T06:26:00.814Z,0.80
2023-01-04T06:28:04.072Z,0.80
2023-01-04T06:30:07.561Z,0.60
2023-01-04T06:32:10.483Z,0.70
2023-01-04T06:34:14.975Z,0.60
2023-01-04T06:36:19.494Z,0.77
2023-01-04T06:38:23.120Z,0.70
2023-01-04T06:40:28.143Z,0.73
2023-01-04T06:42:42.202Z,0.80
2023-01-04T06:44:49.887Z,0.80
2023-01-04T06:46:52.595Z,0.63
2023-01-04T06:48:55.315Z,0.73
2023-01-04T06:50:59.844Z,0.90
2023-01-04T06:53:04.647Z,0.70
2023-01-04T06:55:13.051Z,0.70
2023-01-04T06:57:15.745Z,0.70
2023-01-04T06:59:18.800Z,0.60
2023-01-04T07:01:21.752Z,0.60
2023-01-04T07:03:24.510Z,0.77
2023-01-04T07:05:27.259Z,0.90
2023-01-04T07:07:32.803Z,0.73
2023-01-04T07:09:39.208Z,0.80
2023-01-04T07:11:41.920Z,0.77
2023-01-04T07:13:44.668Z,0.80
2023-01-04T07:15:47.986Z,0.70
2023-01-04T07:17:50.869Z,0.80
2023-01-04T07:19:53.657Z,0.60
2023-01-04T07:21:58.589Z,0.73
2023-01-04T07:24:02.995Z,0.70
2023-01-04T07:26:05.904Z,0.87
2023-01-04T07:28:09.433Z,0.80
2023-01-04T07:30:13.112Z,0.70
2023-01-04T07:32:16.922Z,1.10
2023-01-04T07:34:20.512Z,0.70
2023-01-04T07:36:23.246Z,0.60
2023-01-04T07:38:25.998Z,0.80
2023-01-04T07:40:30.237Z,0.70
2023-01-04T07:42:33.015Z,0.73
2023-01-04T07:44:35.780Z,0.60
2023-01-04T07:46:40.239Z,0.73
2023-01-04T07:48:43.070Z,0.70
2023-01-04T07:50:46.201Z,0.87
2023-01-04T07:52:48.964Z,0.70
2023-01-04T07:54:52.479Z,0.80
2023-01-04T07:56:56.512Z,0.70
2023-01-04T07:58:59.470Z,0.90
2023-01-04T08:01:07.843Z,0.80
2023-01-04T08:03:10.626Z,0.60
2023-01-04T08:05:13.482Z,0.67
2023-01-04T08:07:16.257Z,0.80
2023-01-04T08:09:19.473Z,0.70
2023-01-04T08:11:24.164Z,0.77
2023-01-04T08:13:28.152Z,0.70
2023-01-04T08:15:30.923Z,0.80
2023-01-04T08:17:34.110Z,0.97
2023-01-04T08:19:36.908Z,0.77
2023-01-04T08:21:39.679Z,0.77
2023-01-04T08:23:42.398Z,0.70
2023-01-04T08:25:45.616Z,0.80
2023-01-04T08:27:48.662Z,1.10
2023-01-04T08:29:52.664Z,0.90
2023-01-04T08:31:55.389Z,0.60
2023-01-04T08:33:58.602Z,0.70
2023-01-04T08:36:08.717Z,0.93
2023-01-04T08:38:47.198Z,0.77
2023-01-04T08:41:00.039Z,0.83
2023-01-04T08:42:57.400Z,0.80
2023-01-04T08:45:02.255Z,0.50
2023-01-04T08:47:05.289Z,0.80
2023-01-04T08:49:08.660Z,0.77
2023-01-04T08:51:13.165Z,0.60
2023-01-04T08:53:15.908Z,0.70
2023-01-04T08:55:23.126Z,0.67
2023-01-04T08:57:26.801Z,0.70
2023-01-04T08:59:29.859Z,0.80
2023-01-04T09:01:34.182Z,0.80
2023-01-04T09:03:37.236Z,0.70
2023-01-04T09:05:40.405Z,1.10
2023-01-04T09:07:43.140Z,0.70
2023-01-04T09:09:45.875Z,0.70
2023-01-04T09:11:48.587Z,0.70
2023-01-04T09:13:59.550Z,0.70
2023-01-04T09:16:08.644Z,0.60
2023-01-04T09:18:31.009Z,0.70
2023-01-04T09:20:34.807Z,0.60
2023-01-04T09:22:37.841Z,0.60
2023-01-04T09:24:40.592Z,0.80
2023-01-04T09:26:43.385Z,0.60
2023-01-04T09:28:46.176Z,0.60
2023-01-04T09:30:49.640Z,0.80
2023-01-04T09:32:52.388Z,0.67
2023-01-04T09:34:56.444Z,0.70
2023-01-04T09:36:59.204Z,0.70
2023-01-04T09:39:02.042Z,0.90
2023-01-04T09:41:09.340Z,0.60
2023-01-04T09:43:19.998Z,0.70
2023-01-04T09:45:26.550Z,0.73
2023-01-04T09:47:35.414Z,0.60
2023-01-04T09:49:40.384Z,0.73
2023-01-04T09:51:46.443Z,0.70
2023-01-04T09:53:51.621Z,0.80
2023-01-04T09:55:55.661Z,0.80
2023-01-04T09:58:00.211Z,0.97
2023-01-04T10:00:05.788Z,0.87
2023-01-04T10:02:13.219Z,0.93
2023-01-04T10:04:18.935Z,0.90
2023-01-04T10:06:21.684Z,0.80
2023-01-04T10:08:26.567Z,0.87
2023-01-04T10:10:40.004Z,0.77
2023-01-04T10:12:47.586Z,0.93
2023-01-04T10:14:57.475Z,1.00
2023-01-04T10:17:13.669Z,0.83
2023-01-04T10:21:08.531Z,0.83
2023-01-04T10:21:50.341Z,1.00
2023-01-04T10:24:00.167Z,0.90
2023-01-04T10:26:07.302Z,0.90
2023-01-04T10:28:16.434Z,0.70
2023-01-04T10:30:26.517Z,0.80
2023-01-04T10:32:35.217Z,0.80
2023-01-04T10:34:40.186Z,0.73
2023-01-04T10:36:43.368Z,0.90
2023-01-04T10:38:46.713Z,0.90
2023-01-04T10:40:50.743Z,1.00
2023-01-04T10:42:58.056Z,0.73
2023-01-04T10:45:09.336Z,0.77
2023-01-04T10:47:16.453Z,1.00
2023-01-04T10:49:21.790Z,0.90
2023-01-04T10:51:31.813Z,0.80
2023-01-04T10:53:37.056Z,0.80
2023-01-04T10:55:41.885Z,0.70
2023-01-04T10:58:09.897Z,0.83
2023-01-04T11:00:15.113Z,0.83
2023-01-04T11:02:20.672Z,0.90
2023-01-04T11:04:26.197Z,0.90
2023-01-04T11:06:30.206Z,0.90
2023-01-04T11:08:39.098Z,1.13
2023-01-04T11:10:48.020Z,1.10
2023-01-04T11:12:53.784Z,0.90
2023-01-04T11:14:58.394Z,0.80
2023-01-04T11:17:02.366Z,0.80
2023-01-04T11:19:05.180Z,0.90
2023-01-04T11:21:09.884Z,0.80
2023-01-04T11:23:14.745Z,1.07
2023-01-04T11:25:36.213Z,0.83
2023-01-04T11:27:43.846Z,0.87
2023-01-04T11:29:52.590Z,0.70
2023-01-04T11:31:57.801Z,1.00
2023-01-04T11:34:01.149Z,0.70
2023-01-04T11:36:03.881Z,0.70
2023-01-04T11:38:15.076Z,0.70
2023-01-04T11:40:21.582Z,0.80
2023-01-04T11:42:24.678Z,0.90
2023-01-04T11:44:27.835Z,1.00
2023-01-04T11:46:31.128Z,0.77
2023-01-04T11:48:37.901Z,0.90
2023-01-04T11:50:42.673Z,0.70
2023-01-04T11:52:47.799Z,0.93
2023-01-04T11:54:50.502Z,0.80
2023-01-04T11:57:08.791Z,0.83
2023-01-04T11:59:20.956Z,0.80
2023-01-04T12:01:27.736Z,0.70
2023-01-04T12:03:32.053Z,0.80
2023-01-04T12:05:36.547Z,0.80
2023-01-04T12:07:41.403Z,0.70
2023-01-04T12:09:44.183Z,0.80
2023-01-04T12:11:49.889Z,0.70
2023-01-04T12:13:52.652Z,0.77
2023-01-04T12:15:59.792Z,0.60
2023-01-04T12:18:04.886Z,0.90
2023-01-04T12:20:16.642Z,0.73
2023-01-04T12:22:26.360Z,0.70
2023-01-04T12:24:32.563Z,0.80
2023-01-04T12:26:41.680Z,0.87
2023-01-04T12:28:45.247Z,0.90
2023-01-04T12:30:48.363Z,0.67
2023-01-04T12:32:51.977Z,0.90
2023-01-04T12:34:55.613Z,0.80
2023-01-04T12:37:04.864Z,0.60
2023-01-04T12:39:29.309Z,0.70
2023-01-04T12:42:01.958Z,0.70
2023-01-04T12:44:05.112Z,0.80
2023-01-04T12:46:46.070Z,0.77
2023-01-04T12:48:59.742Z,0.60
2023-01-04T12:51:31.255Z,0.70
2023-01-04T12:53:50.863Z,0.90
2023-01-04T12:55:56.672Z,0.80
2023-01-04T12:58:05.663Z,0.80
2023-01-04T13:00:09.505Z,0.60
2023-01-04T13:02:21.500Z,0.90
2023-01-04T13:04:29.240Z,0.70
2023-01-04T13:06:33.192Z,0.73
2023-01-04T13:08:40.465Z,1.00
2023-01-04T13:10:44.715Z,0.87
2023-01-04T13:12:54.500Z,0.70
2023-01-04T13:14:59.454Z,0.60
2023-01-04T13:17:13.456Z,1.00
2023-01-04T13:19:19.523Z,0.67
2023-01-04T13:21:28.756Z,0.87
2023-01-04T13:23:34.071Z,0.70
2023-01-04T13:25:37.193Z,0.70
2023-01-04T13:27:39.895Z,0.70
2023-01-04T13:29:43.964Z,0.60
2023-01-04T13:31:52.032Z,0.90
2023-01-04T13:33:55.313Z,0.70
2023-01-04T13:36:01.518Z,0.70
2023-01-04T13:38:04.316Z,0.70
2023-01-04T13:40:19.681Z,0.80
2023-01-04T13:42:25.774Z,0.70
2023-01-04T13:45:17.715Z,0.87
2023-01-04T13:47:06.277Z,0.80
2023-01-04T13:49:09.197Z,0.70
2023-01-04T13:51:15.511Z,0.83
2023-01-04T13:53:21.221Z,0.70
2023-01-04T13:55:26.976Z,0.60
2023-01-04T13:57:29.773Z,0.80
2023-01-04T13:59:32.743Z,0.80
2023-01-04T14:01:36.941Z,0.90
2023-01-04T14:03:43.272Z,0.77
2023-01-04T14:05:48.484Z,0.90
2023-01-04T14:07:51.242Z,0.60
2023-01-04T14:09:55.844Z,0.63
2023-01-04T14:12:06.793Z,0.80
2023-01-04T14:14:20.790Z,0.60
2023-01-04T14:16:23.536Z,0.70
2023-01-04T14:18:27.760Z,0.60
2023-01-04T14:20:36.632Z,0.67
2023-01-04T14:22:41.421Z,0.60
2023-01-04T14:27:32.273Z,0.60
2023-01-04T14:29:34.995Z,0.50
2023-01-04T14:31:38.431Z,0.63
2023-01-04T14:33:43.352Z,0.80
2023-01-04T14:35:49.046Z,0.70
2023-01-04T14:37:52.915Z,0.70
2023-01-04T14:39:56.174Z,0.53
2023-01-04T14:42:00.210Z,0.60
2023-01-04T14:44:08.696Z,0.70
2023-01-04T14:46:11.474Z,0.70
2023-01-04T14:48:23.549Z,0.50
2023-01-04T14:50:26.792Z,0.70
2023-01-04T14:52:30.922Z,0.63
2023-01-04T14:54:35.177Z,0.70
2023-01-04T14:56:40.381Z,0.60
2023-01-04T14:58:43.149Z,0.67
2023-01-04T15:00:46.066Z,0.70
2023-01-04T15:02:51.093Z,0.70
2023-01-04T15:04:54.394Z,0.73
2023-01-04T15:06:58.103Z,0.83
2023-01-04T15:09:02.180Z,0.70
2023-01-04T15:11:04.963Z,0.60
2023-01-04T15:13:08.009Z,0.50
2023-01-04T15:15:12.309Z,0.60
2023-01-04T15:17:15.096Z,0.80
2023-01-04T15:19:20.930Z,0.50
2023-01-04T15:21:24.007Z,0.50
2023-01-04T15:23:26.866Z,0.50
2023-01-04T15:25:31.564Z,0.50
2023-01-04T15:27:40.030Z,0.67
2023-01-04T15:29:45.163Z,0.70
2023-01-04T15:31:47.941Z,0.73
2023-01-04T15:33:51.737Z,0.63
2023-01-04T15:35:59.950Z,0.57
2023-01-04T15:38:06.815Z,0.70
2023-01-04T15:40:10.730Z,0.70
2023-01-04T15:42:26.185Z,0.70
2023-01-04T15:44:30.154Z,0.50
2023-01-04T15:46:32.948Z,0.60
2023-01-04T15:48:36.054Z,0.60
2023-01-04T15:50:40.160Z,0.70
2023-01-04T15:52:42.912Z,0.60
2023-01-04T15:54:45.594Z,0.73
2023-01-04T15:56:48.285Z,0.70
2023-01-04T15:58:54.727Z,0.53
2023-01-04T16:01:02.711Z,0.50
2023-01-04T16:03:09.025Z,0.70
2023-01-04T16:05:11.885Z,0.60
2023-01-04T16:07:17.946Z,0.87
2023-01-04T16:09:20.746Z,0.50
2023-01-04T16:11:24.095Z,0.60
2023-01-04T16:13:26.834Z,0.60
2023-01-04T16:15:31.374Z,0.57
2023-01-04T16:17:34.153Z,0.67
2023-01-04T16:19:36.897Z,0.67
2023-01-04T16:21:39.608Z,0.60
2023-01-04T16:23:42.833Z,0.60
2023-01-04T16:25:45.536Z,0.60
2023-01-04T16:27:51.285Z,0.73
2023-01-04T16:29:54.292Z,0.60
2023-01-04T16:31:58.904Z,0.50
2023-01-04T16:34:01.759Z,0.93
2023-01-04T16:36:06.136Z,0.50
2023-01-04T16:38:09.132Z,0.57
2023-01-04T16:40:12.844Z,0.50
2023-01-04T16:42:18.901Z,0.60
2023-01-04T16:44:22.317Z,0.50
2023-01-04T16:46:25.801Z,0.60
2023-01-04T16:48:36.427Z,0.60
2023-01-04T16:50:40.396Z,0.50
2023-01-04T16:52:43.479Z,0.70
2023-01-04T16:54:46.177Z,0.50
2023-01-04T16:56:49.693Z,0.50
2023-01-04T16:58:52.521Z,0.50
2023-01-04T17:00:55.619Z,0.50
2023-01-04T17:02:58.505Z,0.50
2023-01-04T17:05:04.397Z,0.50
2023-01-04T17:07:07.545Z,0.80
2023-01-04T17:09:11.111Z,0.60
2023-01-04T17:13:37.443Z,0.53
2023-01-04T17:15:43.546Z,0.53
2023-01-04T17:17:46.904Z,0.60
2023-01-04T17:19:49.642Z,0.50
2023-01-04T17:21:56.464Z,0.60
2023-01-04T17:24:00.233Z,0.50
2023-01-04T17:26:04.011Z,0.50
2023-01-04T17:28:08.103Z,0.70
2023-01-04T17:30:12.364Z,0.60
2023-01-04T17:32:25.125Z,0.60
2023-01-04T17:34:28.302Z,0.50
2023-01-04T17:36:31.110Z,0.50
2023-01-04T17:38:37.562Z,0.43
2023-01-04T17:40:43.300Z,0.50
2023-01-04T17:42:54.208Z,0.40
2023-01-04T17:44:57.500Z,0.50
2023-01-04T17:47:04.421Z,0.50
2023-01-04T17:49:23.917Z,0.53
2023-01-04T17:51:34.970Z,0.40
2023-01-04T17:53:41.021Z,0.60
2023-01-04T17:55:43.756Z,0.60
2023-01-04T17:57:46.502Z,0.50
2023-01-04T17:59:49.605Z,0.50
2023-01-04T18:01:52.471Z,0.60
2023-01-04T18:04:00.708Z,0.40
2023-01-04T18:06:28.608Z,0.60
2023-01-04T18:08:26.250Z,0.60
2023-01-04T18:11:06.769Z,0.60
2023-01-04T18:13:10.369Z,0.60
2023-01-04T18:15:13.369Z,0.60
2023-01-04T18:17:16.222Z,0.40
2023-01-04T18:19:21.869Z,0.50
2023-01-04T18:21:29.829Z,0.50
2023-01-04T18:23:32.835Z,0.63
2023-01-04T18:25:36.809Z,0.60
2023-01-04T18:27:39.545Z,0.50
2023-01-04T18:29:42.627Z,0.40
2023-01-04T18:31:46.369Z,0.60
2023-01-04T18:33:52.853Z,0.50
2023-01-04T18:35:55.898Z,0.50
2023-01-04T18:37:58.649Z,0.50
2023-01-04T18:40:02.629Z,0.57
2023-01-04T18:42:06.687Z,0.50
2023-01-04T18:44:32.100Z,0.57
2023-01-04T18:46:34.148Z,0.53
2023-01-04T18:48:37.127Z,0.60
2023-01-04T18:50:40.420Z,0.60
2023-01-04T18:52:43.239Z,0.53
2023-01-04T18:54:48.060Z,0.67
2023-01-04T18:56:55.735Z,0.57
2023-01-04T18:59:04.102Z,0.60
2023-01-04T19:01:09.821Z,0.50
2023-01-04T19:03:18.168Z,0.50
2023-01-04T19:05:22.627Z,0.50
2023-01-04T19:07:25.364Z,0.60
2023-01-04T19:09:30.713Z,0.53
2023-01-04T19:11:34.824Z,0.70
2023-01-04T19:13:38.127Z,0.80
2023-01-04T19:15:47.669Z,0.77
2023-01-04T19:17:53.283Z,0.70
2023-01-04T19:19:56.017Z,0.80
2023-01-04T19:21:58.774Z,0.70
2023-01-04T19:24:01.637Z,0.60
2023-01-04T19:26:08.495Z,0.90
2023-01-04T19:28:12.920Z,0.77
2023-01-04T19:30:17.240Z,0.90
2023-01-04T19:32:25.272Z,0.70
2023-01-04T19:34:31.841Z,0.87
2023-01-04T19:36:34.594Z,0.80
2023-01-04T19:38:37.384Z,0.80
2023-01-04T19:40:40.522Z,0.80
2023-01-04T19:42:44.387Z,0.80
2023-01-04T19:44:47.652Z,0.80
2023-01-04T19:46:50.392Z,0.90
2023-01-04T19:48:54.979Z,0.70
2023-01-04T19:51:05.784Z,0.80
2023-01-04T19:53:08.665Z,0.70
2023-01-04T19:55:11.485Z,0.70
2023-01-04T19:57:14.261Z,0.90
2023-01-04T19:59:16.978Z,0.80
2023-01-04T20:01:22.279Z,0.80
2023-01-04T20:03:25.975Z,0.83
2023-01-04T20:05:30.090Z,0.90
2023-01-04T20:07:32.860Z,1.07
2023-01-04T20:09:36.231Z,1.17
2023-01-04T20:11:38.951Z,0.83
2023-01-04T20:13:41.711Z,0.90
2023-01-04T20:15:47.257Z,1.00
2023-01-04T20:17:50.380Z,0.87
2023-01-04T20:19:53.101Z,0.80
2023-01-04T20:21:57.377Z,0.90
2023-01-04T20:24:01.017Z,0.97
2023-01-04T20:26:11.127Z,0.90
2023-01-04T20:28:14.628Z,0.90
2023-01-04T20:30:18.916Z,0.90
2023-01-04T20:32:25.270Z,0.60
2023-01-04T20:34:28.864Z,0.70
2023-01-04T20:36:31.908Z,0.70
2023-01-04T20:38:41.881Z,0.77
2023-01-04T20:40:44.757Z,1.00
2023-01-04T20:42:58.931Z,0.83
2023-01-04T20:45:02.156Z,0.70
2023-01-04T20:47:05.060Z,0.80
2023-01-04T20:49:08.029Z,0.80
2023-01-04T20:51:12.294Z,0.80
2023-01-04T20:53:15.060Z,0.80
2023-01-04T20:55:20.592Z,0.60
2023-01-04T20:57:23.389Z,0.77
2023-01-04T20:59:26.576Z,0.70
2023-01-04T21:01:29.454Z,0.80
2023-01-04T21:03:32.363Z,0.80
2023-01-04T21:05:37.076Z,0.70
2023-01-04T21:07:39.812Z,0.70
2023-01-04T21:09:43.880Z,0.83
2023-01-04T21:11:48.952Z,0.90
2023-01-04T21:13:52.577Z,0.90
2023-01-04T21:15:55.554Z,0.77
2023-01-04T21:17:58.337Z,0.80
2023-01-04T21:20:01.376Z,0.80
2023-01-04T21:22:04.528Z,0.90
2023-01-04T21:24:07.773Z,0.67
2023-01-04T21:26:13.784Z,0.83
2023-01-04T21:28:18.200Z,0.70
2023-01-04T21:30:21.713Z,0.73
2023-01-04T21:32:25.263Z,1.00
2023-01-04T21:34:31.449Z,0.80
2023-01-04T21:36:34.310Z,0.90
2023-01-04T21:38:37.402Z,0.70
2023-01-04T21:40:40.980Z,0.70
2023-01-04T21:42:44.085Z,0.97
2023-01-04T21:44:48.040Z,1.00
2023-01-04T21:46:52.245Z,0.83
2023-01-04T21:48:56.047Z,1.20
2023-01-04T21:51:00.150Z,1.00
2023-01-04T21:53:02.872Z,1.23
2023-01-04T21:55:09.229Z,1.00
2023-01-04T21:57:16.086Z,1.20
2023-01-04T21:59:22.850Z,1.10
2023-01-04T22:01:32.677Z,1.20
2023-01-04T22:03:37.837Z,1.20
2023-01-04T22:05:40.542Z,1.20
2023-01-04T22:07:43.411Z,1.20
2023-01-04T22:09:57.052Z,1.03
2023-01-04T22:12:00.366Z,1.20
2023-01-04T22:14:03.102Z,1.10
2023-01-04T22:16:06.991Z,1.10
2023-01-04T22:18:11.915Z,1.40
2023-01-04T22:20:14.957Z,1.50
2023-01-04T22:22:17.679Z,1.30
2023-01-04T22:24:20.651Z,1.40
2023-01-04T22:26:23.721Z,1.10
2023-01-04T22:28:34.667Z,0.93
2023-01-04T22:30:41.214Z,1.33
2023-01-04T22:32:44.355Z,1.13
2023-01-04T22:34:48.399Z,1.40
2023-01-04T22:36:51.091Z,1.37
2023-01-04T22:38:56.036Z,1.30
2023-01-04T22:40:58.751Z,1.20
2023-01-04T22:43:01.482Z,1.23
2023-01-04T22:45:09.484Z,1.23
2023-01-04T22:47:19.064Z,1.17
2023-01-04T22:49:24.219Z,0.90
2023-01-04T22:51:31.960Z,1.17
2023-01-04T22:53:35.999Z,1.00
2023-01-04T22:56:09.306Z,1.00
2023-01-04T22:58:04.558Z,1.17
2023-01-04T23:00:10.465Z,1.23
2023-01-04T23:02:16.366Z,1.10
2023-01-04T23:04:21.966Z,1.10
2023-01-04T23:06:25.070Z,1.20
2023-01-04T23:08:30.458Z,1.03
2023-01-04T23:10:34.105Z,0.80
2023-01-04T23:12:40.470Z,1.30
2023-01-04T23:14:45.499Z,1.30
2023-01-04T23:16:48.835Z,1.00
2023-01-04T23:18:53.217Z,1.30
2023-01-04T23:20:55.971Z,0.80
2023-01-04T23:22:58.748Z,0.90
2023-01-04T23:25:03.332Z,0.93
2023-01-04T23:27:09.120Z,1.17
2023-01-04T23:29:13.323Z,0.90
2023-01-04T23:31:18.011Z,1.03
2023-01-04T23:33:21.220Z,1.20
2023-01-04T23:35:23.961Z,1.10
2023-01-04T23:37:26.658Z,1.20
2023-01-04T23:39:29.406Z,0.93
2023-01-04T23:41:45.403Z,0.80
2023-01-04T23:43:50.895Z,0.90
2023-01-04T23:45:55.712Z,1.10
2023-01-04T23:47:59.611Z,1.13
2023-01-04T23:50:03.357Z,0.90
2023-01-04T23:52:06.869Z,1.20
2023-01-04T23:54:09.757Z,0.80
2023-01-04T23:56:15.514Z,1.20
2023-01-04T23:58:20.032Z,0.93
